createdAt,value
2019-02-21T00:01:32.700Z,10.60
2019-02-21T00:04:01.377Z,10.54
2019-02-21T00:06:29.905Z,10.52
2019-02-21T00:08:58.451Z,10.61
2019-02-21T00:11:27.889Z,10.65
2019-02-21T00:13:57.207Z,10.60
2019-02-21T00:16:26.543Z,10.67
2019-02-21T00:18:55.868Z,10.71
2019-02-21T00:21:25.268Z,10.78
2019-02-21T00:23:54.638Z,10.67
2019-02-21T00:26:23.983Z,10.68
2019-02-21T00:28:53.402Z,10.68
2019-02-21T00:31:22.823Z,10.67
2019-02-21T00:33:52.116Z,10.65
2019-02-21T00:36:20.691Z,10.67
2019-02-21T00:38:50.018Z,10.63
2019-02-21T00:41:19.333Z,10.59
2019-02-21T00:43:48.670Z,10.58
2019-02-21T00:46:18.077Z,10.47
2019-02-21T00:48:47.427Z,10.55
2019-02-21T00:51:16.763Z,10.65
2019-02-21T00:53:46.093Z,10.64
2019-02-21T00:56:15.449Z,10.60
2019-02-21T00:58:43.993Z,10.55
2019-02-21T01:01:12.527Z,10.48
2019-02-21T01:03:41.862Z,10.45
2019-02-21T01:06:11.170Z,10.45
2019-02-21T01:08:40.543Z,10.51
2019-02-21T01:11:09.947Z,10.54
2019-02-21T01:13:39.303Z,10.54
2019-02-21T01:16:08.646Z,10.49
2019-02-21T01:21:40.531Z,10.46
2019-02-21T01:24:09.862Z,10.36
2019-02-21T01:26:39.185Z,10.25
2019-02-21T01:29:08.500Z,10.18
2019-02-21T01:31:37.030Z,10.00
2019-02-21T01:34:05.572Z,10.03
2019-02-21T01:36:35.003Z,9.94
2019-02-21T01:41:49.480Z,9.78
2019-02-21T01:44:18.825Z,9.84
2019-02-21T01:46:47.333Z,9.84
2019-02-21T01:49:16.679Z,9.72
2019-02-21T01:51:45.222Z,9.88
2019-02-21T01:54:14.536Z,9.83
2019-02-21T01:56:43.866Z,9.86
2019-02-21T01:59:13.187Z,9.79
2019-02-21T02:01:42.575Z,9.73
2019-02-21T02:04:11.924Z,9.63
2019-02-21T02:06:41.248Z,9.65
2019-02-21T02:09:12.001Z,9.84
2019-02-21T02:11:40.647Z,9.83
2019-02-21T02:14:09.172Z,9.94
2019-02-21T02:16:38.536Z,9.90
2019-02-21T02:19:07.876Z,9.91
2019-02-21T02:21:37.195Z,9.97
2019-02-21T02:24:06.546Z,10.15
2019-02-21T02:26:35.172Z,10.16
2019-02-21T02:29:04.614Z,10.25
2019-02-21T02:31:34.051Z,10.26
2019-02-21T02:34:03.384Z,10.23
2019-02-21T02:36:32.713Z,10.25
2019-02-21T02:39:01.248Z,10.19
2019-02-21T02:41:30.596Z,10.21
2019-02-21T02:43:59.106Z,10.20
2019-02-21T02:46:28.508Z,10.19
2019-02-21T02:48:57.835Z,10.12
2019-02-21T02:51:27.166Z,10.08
2019-02-21T02:53:56.489Z,10.17
2019-02-21T02:56:25.809Z,10.12
2019-02-21T02:58:55.144Z,10.08
2019-02-21T03:01:34.399Z,10.18
2019-02-21T03:04:13.698Z,10.12
2019-02-21T03:06:43.010Z,10.12
2019-02-21T03:09:12.043Z,10.13
2019-02-21T03:11:41.353Z,10.03
2019-02-21T03:14:10.683Z,10.08
2019-02-21T03:16:40.016Z,10.20
2019-02-21T03:19:09.347Z,10.09
2019-02-21T03:21:38.660Z,10.14
2019-02-21T03:24:07.982Z,10.01
2019-02-21T03:26:37.314Z,9.88
2019-02-21T03:29:06.656Z,9.93
2019-02-21T03:31:52.720Z,9.93
2019-02-21T03:34:24.403Z,9.89
2019-02-21T03:36:53.730Z,9.88
2019-02-21T03:39:22.455Z,9.93
2019-02-21T03:41:51.773Z,9.93
2019-02-21T03:44:21.119Z,9.78
2019-02-21T03:46:50.441Z,9.72
2019-02-21T03:49:19.774Z,9.74
2019-02-21T03:51:49.101Z,9.75
2019-02-21T03:54:18.423Z,9.79
2019-02-21T03:56:47.809Z,9.67
2019-02-21T03:59:16.294Z,9.61
2019-02-21T04:01:45.614Z,9.69
2019-02-21T04:04:14.954Z,9.69
2019-02-21T04:06:44.269Z,9.59
2019-02-21T04:09:13.603Z,9.61
2019-02-21T04:11:42.940Z,9.61
2019-02-21T04:14:11.480Z,9.55
2019-02-21T04:16:40.812Z,9.55
2019-02-21T04:19:10.209Z,9.44
2019-02-21T04:21:39.590Z,9.47
2019-02-21T04:24:08.085Z,9.41
2019-02-21T04:26:36.637Z,9.48
2019-02-21T04:29:06.029Z,9.39
2019-02-21T04:31:35.358Z,9.46
2019-02-21T04:34:04.696Z,9.47
2019-02-21T04:36:36.751Z,9.54
2019-02-21T04:39:05.480Z,9.47
2019-02-21T04:41:34.821Z,9.48
2019-02-21T04:44:04.276Z,9.50
2019-02-21T04:46:33.686Z,9.34
2019-02-21T04:49:03.218Z,9.28
2019-02-21T04:51:32.549Z,9.18
2019-02-21T04:54:01.876Z,9.25
2019-02-21T04:56:30.386Z,9.22
2019-02-21T04:58:58.910Z,9.19
2019-02-21T05:01:28.249Z,9.19
2019-02-21T05:03:57.653Z,9.28
2019-02-21T05:06:27.032Z,9.20
2019-02-21T05:08:56.359Z,9.19
2019-02-21T05:11:25.682Z,9.14
2019-02-21T05:13:54.315Z,9.18
2019-02-21T05:16:23.678Z,9.18
2019-02-21T05:18:52.403Z,9.15
2019-02-21T05:21:21.747Z,9.22
2019-02-21T05:23:50.388Z,9.22
2019-02-21T05:26:26.015Z,9.13
2019-02-21T05:28:54.540Z,9.10
2019-02-21T05:31:42.587Z,9.02
2019-02-21T05:34:30.582Z,9.06
2019-02-21T05:37:10.743Z,8.97
2019-02-21T05:39:52.229Z,9.01
2019-02-21T05:42:40.205Z,9.15
2019-02-21T05:45:23.222Z,9.10
2019-02-21T05:48:11.218Z,8.97
2019-02-21T05:50:48.090Z,9.01
2019-02-21T05:53:36.082Z,9.05
2019-02-21T05:56:24.075Z,9.08
2019-02-21T05:58:59.253Z,9.09
2019-02-21T06:01:48.059Z,9.16
2019-02-21T06:04:36.047Z,9.05
2019-02-21T06:07:22.208Z,9.04
2019-02-21T06:10:10.995Z,9.20
2019-02-21T06:13:00.120Z,9.19
2019-02-21T06:15:48.182Z,9.17
2019-02-21T06:18:36.167Z,9.27
2019-02-21T06:21:24.172Z,9.28
2019-02-21T06:24:12.168Z,9.29
2019-02-21T06:27:01.121Z,9.30
2019-02-21T06:29:49.961Z,9.31
2019-02-21T06:32:18.558Z,9.36
2019-02-21T06:34:47.113Z,9.34
2019-02-21T06:37:15.675Z,9.37
2019-02-21T06:39:45.042Z,9.37
2019-02-21T06:42:14.384Z,9.41
2019-02-21T06:44:43.720Z,9.42
2019-02-21T06:47:13.073Z,9.52
2019-02-21T06:49:42.399Z,9.57
2019-02-21T06:52:11.717Z,9.53
2019-02-21T06:54:41.059Z,9.61
2019-02-21T06:57:10.399Z,9.65
2019-02-21T06:59:43.459Z,9.72
2019-02-21T07:02:28.968Z,9.82
2019-02-21T07:04:58.314Z,9.93
2019-02-21T07:07:26.744Z,9.92
2019-02-21T07:09:56.099Z,9.99
2019-02-21T07:12:25.438Z,10.01
2019-02-21T07:14:54.787Z,9.96
2019-02-21T07:17:24.132Z,10.03
2019-02-21T07:19:53.470Z,10.07
2019-02-21T07:22:22.807Z,10.15
2019-02-21T07:24:55.991Z,10.13
2019-02-21T07:27:24.593Z,10.26
2019-02-21T07:29:53.950Z,10.29
2019-02-21T07:32:23.290Z,10.35
2019-02-21T07:34:52.632Z,10.44
2019-02-21T07:37:21.988Z,10.49
2019-02-21T07:39:51.324Z,10.52
2019-02-21T07:42:19.864Z,10.56
2019-02-21T07:44:49.206Z,10.60
2019-02-21T07:47:18.507Z,10.56
2019-02-21T07:49:47.888Z,10.71
2019-02-21T07:52:17.203Z,10.84
2019-02-21T07:54:49.365Z,10.93
2019-02-21T07:57:35.812Z,11.01
2019-02-21T08:00:05.554Z,11.07
2019-02-21T08:02:34.899Z,11.14
2019-02-21T08:05:03.799Z,11.24
2019-02-21T08:07:32.443Z,11.26
2019-02-21T08:10:01.924Z,11.31
2019-02-21T08:12:30.442Z,11.29
2019-02-21T08:14:59.795Z,11.49
2019-02-21T08:17:28.274Z,11.44
2019-02-21T08:20:07.831Z,11.56
2019-02-21T08:22:46.946Z,11.70
2019-02-21T08:25:15.389Z,11.73
2019-02-21T08:27:44.737Z,11.85
2019-02-21T08:30:13.920Z,11.92
2019-02-21T08:33:01.925Z,11.96
2019-02-21T08:35:31.332Z,11.98
2019-02-21T08:38:00.660Z,12.07
2019-02-21T08:40:30.007Z,12.02
2019-02-21T08:42:58.562Z,12.10
2019-02-21T08:45:27.127Z,12.15
2019-02-21T08:47:55.670Z,12.09
2019-02-21T08:50:24.151Z,12.18
2019-02-21T08:52:53.486Z,12.22
2019-02-21T08:55:22.943Z,12.27
2019-02-21T08:57:52.286Z,12.25
2019-02-21T09:00:21.647Z,12.31
2019-02-21T09:02:50.985Z,12.44
2019-02-21T09:05:20.330Z,12.44
2019-02-21T09:07:49.674Z,12.36
2019-02-21T09:10:18.253Z,12.47
2019-02-21T09:12:48.530Z,12.59
2019-02-21T09:15:17.311Z,12.48
2019-02-21T09:17:45.966Z,12.52
2019-02-21T09:20:14.492Z,12.62
2019-02-21T09:22:43.049Z,12.53
2019-02-21T09:25:11.958Z,12.65
2019-02-21T09:27:40.491Z,12.90
2019-02-21T09:30:29.982Z,12.77
2019-02-21T09:32:58.664Z,12.78
2019-02-21T09:35:27.287Z,12.78
2019-02-21T09:37:56.649Z,12.77
2019-02-21T09:40:28.408Z,12.75
2019-02-21T09:43:15.215Z,12.77
2019-02-21T09:45:44.542Z,12.86
2019-02-21T09:48:13.863Z,13.06
2019-02-21T09:50:43.281Z,13.11
2019-02-21T09:53:12.614Z,12.95
2019-02-21T09:55:41.980Z,13.07
2019-02-21T09:58:10.496Z,13.19
2019-02-21T10:00:39.845Z,13.09
2019-02-21T10:03:09.223Z,13.30
2019-02-21T10:05:38.579Z,13.20
2019-02-21T10:08:07.911Z,13.07
2019-02-21T10:10:37.237Z,13.14
2019-02-21T10:13:06.610Z,13.41
2019-02-21T10:15:35.932Z,13.39
2019-02-21T10:18:05.248Z,13.55
2019-02-21T10:20:34.988Z,13.66
2019-02-21T10:23:03.801Z,13.73
2019-02-21T10:25:32.463Z,13.96
2019-02-21T10:28:01.104Z,13.90
2019-02-21T10:30:29.646Z,13.50
2019-02-21T10:32:58.982Z,13.54
2019-02-21T10:35:27.532Z,13.57
2019-02-21T10:37:56.097Z,13.68
2019-02-21T10:40:24.743Z,13.52
2019-02-21T10:42:53.188Z,13.64
2019-02-21T10:45:21.943Z,13.65
2019-02-21T10:47:51.300Z,13.63
2019-02-21T10:50:20.753Z,13.70
2019-02-21T10:52:49.501Z,13.68
2019-02-21T10:55:18.859Z,13.64
2019-02-21T10:57:48.281Z,13.80
2019-02-21T11:00:38.203Z,13.78
2019-02-21T11:03:07.618Z,13.68
2019-02-21T11:05:37.144Z,13.50
2019-02-21T11:08:06.501Z,13.50
2019-02-21T11:10:35.152Z,13.65
2019-02-21T11:13:03.786Z,13.44
2019-02-21T11:15:33.206Z,13.80
2019-02-21T11:18:02.526Z,13.80
2019-02-21T11:20:31.864Z,13.90
2019-02-21T11:23:01.219Z,13.91
2019-02-21T11:25:30.568Z,13.85
2019-02-21T11:27:59.895Z,14.11
2019-02-21T11:30:28.524Z,14.16
2019-02-21T11:32:57.061Z,13.83
2019-02-21T11:35:26.397Z,13.73
2019-02-21T11:37:54.942Z,13.95
2019-02-21T11:40:24.396Z,13.92
2019-02-21T11:42:53.746Z,13.81
2019-02-21T14:46:24.475Z,13.84
2019-02-21T14:48:53.835Z,13.72
2019-02-21T14:51:23.167Z,13.78
2019-02-21T14:53:52.512Z,13.68
2019-02-21T14:56:21.847Z,13.70
2019-02-21T14:58:51.152Z,13.80
2019-02-21T15:01:20.514Z,13.79
2019-02-21T15:03:49.202Z,13.82
2019-02-21T15:06:26.700Z,13.71
2019-02-21T15:09:07.924Z,13.65
2019-02-21T15:11:37.394Z,13.70
2019-02-21T15:14:06.961Z,13.65
2019-02-21T15:16:36.347Z,13.70
2019-02-21T15:19:05.665Z,13.60
2019-02-21T15:21:35.141Z,13.53
2019-02-21T15:24:04.532Z,13.56
2019-02-21T15:26:33.982Z,13.55
2019-02-21T15:29:02.936Z,13.57
2019-02-21T15:31:32.169Z,13.48
2019-02-21T15:34:01.218Z,13.38
2019-02-21T15:36:37.993Z,13.35
2019-02-21T15:39:19.815Z,13.37
2019-02-21T15:41:49.167Z,13.52
2019-02-21T15:44:18.513Z,13.48
2019-02-21T15:46:47.860Z,13.42
2019-02-21T15:49:17.617Z,13.43
2019-02-21T15:51:47.066Z,13.53
2019-02-21T15:54:16.399Z,13.63
2019-02-21T15:56:45.774Z,13.35
2019-02-21T15:59:15.377Z,13.40
2019-02-21T16:01:47.505Z,13.33
2019-02-21T16:04:35.331Z,13.19
2019-02-21T16:07:22.544Z,13.17
2019-02-21T16:09:51.359Z,13.06
2019-02-21T16:12:21.169Z,12.98
2019-02-21T16:15:10.491Z,12.81
2019-02-21T16:17:40.199Z,13.14
2019-02-21T16:20:28.434Z,12.97
2019-02-21T16:22:57.054Z,12.71
2019-02-21T16:25:25.594Z,12.81
2019-02-21T16:27:55.614Z,12.71
2019-02-21T16:30:44.149Z,12.64
2019-02-21T16:33:13.478Z,12.59
2019-02-21T16:35:42.811Z,12.61
2019-02-21T16:38:12.130Z,12.56
2019-02-21T16:40:41.459Z,12.40
2019-02-21T16:43:10.795Z,12.39
2019-02-21T16:45:46.213Z,12.16
2019-02-21T16:48:29.378Z,12.10
2019-02-21T16:50:58.744Z,12.08
2019-02-21T16:53:28.086Z,12.07
2019-02-21T16:55:57.406Z,12.03
2019-02-21T16:58:26.731Z,11.73
2019-02-21T17:00:56.862Z,11.81
2019-02-21T17:03:45.302Z,11.97
2019-02-21T17:06:14.701Z,12.06
2019-02-21T17:08:44.029Z,12.05
2019-02-21T17:11:13.381Z,11.98
2019-02-21T17:13:42.704Z,11.54
2019-02-21T17:16:12.032Z,11.48
2019-02-21T17:18:40.578Z,11.43
2019-02-21T17:21:09.302Z,11.17
2019-02-21T17:23:38.635Z,11.21
2019-02-21T17:26:07.944Z,11.42
2019-02-21T17:28:37.275Z,11.49
2019-02-21T17:31:06.612Z,11.53
2019-02-21T17:33:35.936Z,11.47
2019-02-21T17:36:05.292Z,10.94
2019-02-21T17:38:34.662Z,10.91
2019-02-21T17:41:04.003Z,10.84
2019-02-21T17:43:33.328Z,10.98
2019-02-21T17:46:02.162Z,10.77
2019-02-21T17:48:31.498Z,10.72
2019-02-21T17:51:00.126Z,10.58
2019-02-21T17:53:30.375Z,10.60
2019-02-21T17:55:59.740Z,10.37
2019-02-21T18:01:32.944Z,10.20
2019-02-21T18:07:04.369Z,9.54
2019-02-21T18:09:33.718Z,9.58
2019-02-21T18:15:06.492Z,9.08
2019-02-21T18:17:36.376Z,9.36
2019-02-21T18:20:06.413Z,8.99
2019-02-21T18:22:35.672Z,9.34
2019-02-21T18:25:08.627Z,9.80
2019-02-21T18:27:37.447Z,9.44
2019-02-21T18:32:51.759Z,9.13
2019-02-21T18:35:37.183Z,9.09
2019-02-21T18:38:05.847Z,8.89
2019-02-21T18:40:35.213Z,8.78
2019-02-21T18:43:03.735Z,8.67
2019-02-21T18:45:33.069Z,8.64
2019-02-21T18:48:02.502Z,8.50
2019-02-21T18:53:34.980Z,8.82
2019-02-21T18:59:06.901Z,8.67
2019-02-21T19:01:36.246Z,8.48
2019-02-21T19:04:05.786Z,8.57
2019-02-21T19:06:35.122Z,8.36
2019-02-21T19:12:07.546Z,8.20
2019-02-21T19:14:36.886Z,8.42
2019-02-21T19:17:06.226Z,8.39
2019-02-21T19:19:35.546Z,8.49
2019-02-21T19:22:05.194Z,8.58
2019-02-21T19:24:36.977Z,8.42
2019-02-21T19:27:23.893Z,8.82
2019-02-21T19:29:53.246Z,8.66
2019-02-21T19:32:22.569Z,8.62
2019-02-21T19:34:51.911Z,8.29
2019-02-21T19:37:21.339Z,7.97
2019-02-21T19:39:49.886Z,7.90
2019-02-21T19:42:19.230Z,8.21
2019-02-21T19:44:47.859Z,7.63
2019-02-21T19:47:17.184Z,7.55
2019-02-21T19:49:46.626Z,7.92
2019-02-21T19:52:15.967Z,7.53
2019-02-21T19:54:45.363Z,7.98
2019-02-21T19:57:15.465Z,7.41
2019-02-21T19:59:44.950Z,7.51
2019-02-21T20:02:27.538Z,7.41
2019-02-21T20:04:57.209Z,7.05
2019-02-21T20:07:26.336Z,7.40
2019-02-21T20:13:00.719Z,7.77
2019-02-21T20:15:30.003Z,7.35
2019-02-21T20:17:59.919Z,7.00
2019-02-21T20:20:29.582Z,7.39
2019-02-21T20:22:58.912Z,7.57
2019-02-21T20:25:28.222Z,7.29
2019-02-21T20:27:57.544Z,6.93
2019-02-21T20:30:27.432Z,7.13
2019-02-21T20:32:56.783Z,7.60
2019-02-21T20:35:26.117Z,7.72
2019-02-21T20:37:55.533Z,7.77
2019-02-21T20:40:24.888Z,7.68
2019-02-21T20:42:54.182Z,7.22
2019-02-21T20:45:24.812Z,7.18
2019-02-21T20:48:12.726Z,7.19
2019-02-21T20:50:42.054Z,7.23
2019-02-21T20:53:12.638Z,7.22
2019-02-21T20:55:44.041Z,7.26
2019-02-21T20:58:12.977Z,6.97
2019-02-21T21:00:43.375Z,7.39
2019-02-21T21:03:13.037Z,7.49
2019-02-21T21:05:42.751Z,7.24
2019-02-21T21:08:14.067Z,7.41
2019-02-21T21:10:44.666Z,7.38
2019-02-21T21:13:34.379Z,7.24
2019-02-21T21:16:04.071Z,7.37
2019-02-21T21:18:33.410Z,7.15
2019-02-21T21:21:06.751Z,7.42
2019-02-21T21:23:35.740Z,7.27
2019-02-21T21:26:06.004Z,7.20
2019-02-21T21:28:36.648Z,6.61
2019-02-21T21:31:15.431Z,7.12
2019-02-21T21:36:48.683Z,6.75
2019-02-21T21:39:46.863Z,7.15
2019-02-21T21:42:16.949Z,6.70
2019-02-21T21:44:47.139Z,6.95
2019-02-21T21:47:16.104Z,6.94
2019-02-21T21:49:46.768Z,7.02
2019-02-21T21:52:19.924Z,6.97
2019-02-21T21:54:49.882Z,7.15
2019-02-21T21:57:24.633Z,6.99
2019-02-21T21:59:57.050Z,7.12
2019-02-21T22:02:32.652Z,6.81
2019-02-21T22:05:07.398Z,6.48
2019-02-21T22:10:57.977Z,6.75
2019-02-21T22:13:32.070Z,7.00
2019-02-21T22:16:02.988Z,6.94
2019-02-21T22:18:39.739Z,6.52
2019-02-21T22:21:14.337Z,6.97
2019-02-21T22:26:51.162Z,6.75
2019-02-21T22:29:45.243Z,6.97
2019-02-21T22:35:39.326Z,6.60
2019-02-21T22:41:16.957Z,6.61
2019-02-21T22:43:50.585Z,6.84
2019-02-21T22:49:10.612Z,6.66
2019-02-21T22:51:52.102Z,6.42
2019-02-21T22:54:22.165Z,6.45
2019-02-21T22:57:10.524Z,6.35
2019-02-21T22:59:47.207Z,6.37
2019-02-21T23:02:20.535Z,6.60
2019-02-21T23:05:33.703Z,6.50
2019-02-21T23:08:15.927Z,6.35
2019-02-21T23:10:45.431Z,6.87
2019-02-21T23:13:17.946Z,6.96
2019-02-21T23:15:51.618Z,7.18
2019-02-21T23:18:25.067Z,7.24
2019-02-21T23:20:54.686Z,6.97
2019-02-21T23:23:24.692Z,6.93
2019-02-21T23:29:18.996Z,6.78
2019-02-21T23:31:50.157Z,7.06
2019-02-21T23:34:40.909Z,6.60
2019-02-21T23:37:12.865Z,6.96
2019-02-21T23:39:48.245Z,6.90
2019-02-21T23:42:21.709Z,7.02
2019-02-21T23:44:52.177Z,7.23
2019-02-21T23:47:25.132Z,6.98
2019-02-21T23:49:57.485Z,6.52
2019-02-21T23:52:27.170Z,7.18
2019-02-21T23:55:09.486Z,7.17
2019-02-21T23:57:40.370Z,6.66
